createdAt,value
2022-09-28T00:02:01.386Z,62.26
2022-09-28T00:12:04.666Z,61.93
2022-09-28T00:22:09.100Z,63.04
2022-09-28T00:32:13.375Z,63.81
2022-09-28T00:42:19.460Z,63.80
2022-09-28T00:52:27.086Z,65.71
2022-09-28T01:02:32.729Z,66.13
2022-09-28T01:12:35.858Z,67.06
2022-09-28T01:23:13.062Z,66.38
2022-09-28T01:33:21.879Z,66.68
2022-09-28T01:43:26.646Z,66.78
2022-09-28T01:53:37.244Z,66.75
2022-09-28T02:03:42.327Z,66.68
2022-09-28T02:13:49.817Z,67.06
2022-09-28T02:23:55.304Z,67.26
2022-09-28T02:34:00.376Z,66.17
2022-09-28T02:44:09.540Z,66.23
2022-09-28T02:54:29.156Z,67.24
2022-09-28T03:04:38.549Z,67.21
2022-09-28T03:14:42.985Z,67.02
2022-09-28T03:24:46.012Z,67.95
2022-09-28T03:34:50.483Z,67.29
2022-09-28T03:44:53.643Z,66.93
2022-09-28T03:54:58.099Z,65.95
2022-09-28T04:05:01.222Z,68.08
2022-09-28T04:15:06.418Z,67.07
2022-09-28T04:25:10.300Z,69.56
2022-09-28T04:35:15.020Z,69.08
2022-09-28T04:45:18.082Z,68.54
2022-09-28T04:55:22.622Z,67.80
2022-09-28T05:05:25.859Z,67.94
2022-09-28T05:15:31.051Z,68.47
2022-09-28T05:25:36.049Z,67.56
2022-09-28T05:35:40.449Z,67.89
2022-09-28T05:45:43.608Z,67.24
2022-09-28T05:55:48.198Z,65.67
2022-09-28T06:05:51.497Z,62.07
2022-09-28T06:15:56.092Z,55.81
2022-09-28T06:26:00.331Z,51.55
2022-09-28T06:36:04.763Z,52.97
2022-09-28T06:46:09.826Z,51.62
2022-09-28T06:56:14.476Z,52.82
2022-09-28T07:06:18.348Z,50.50
2022-09-28T07:16:27.515Z,46.67
2022-09-28T07:26:33.220Z,47.41
2022-09-28T07:36:39.081Z,44.88
2022-09-28T07:46:43.421Z,41.34
2022-09-28T07:56:48.477Z,43.45
2022-09-28T08:06:51.641Z,43.19
2022-09-28T08:16:56.104Z,44.65
2022-09-28T08:27:00.518Z,45.96
2022-09-28T08:37:05.090Z,45.77
2022-09-28T08:47:33.691Z,46.36
2022-09-28T08:57:45.188Z,46.14
2022-09-28T09:08:02.573Z,46.23
2022-09-28T09:18:20.084Z,48.80
2022-09-28T09:28:44.699Z,47.22
2022-09-28T09:38:58.117Z,44.79
2022-09-28T09:49:05.409Z,47.70
2022-09-28T09:59:14.343Z,47.85
2022-09-28T10:09:21.921Z,47.92
2022-09-28T10:19:32.858Z,47.20
2022-09-28T10:29:43.361Z,47.37
2022-09-28T10:39:54.344Z,47.08
2022-09-28T10:49:57.773Z,46.62
2022-09-28T11:00:03.192Z,43.38
2022-09-28T11:10:07.407Z,43.52
2022-09-28T11:20:31.275Z,46.44
2022-09-28T11:30:38.047Z,45.28
2022-09-28T11:40:50.916Z,44.21
2022-09-28T11:50:58.031Z,44.17
2022-09-28T12:01:05.426Z,44.13
2022-09-28T12:11:12.580Z,45.02
2022-09-28T12:21:32.897Z,45.84
2022-09-28T12:31:39.190Z,43.03
2022-09-28T12:41:50.677Z,43.38
2022-09-28T12:51:54.780Z,42.77
2022-09-28T13:02:28.584Z,43.92
2022-09-28T13:12:41.544Z,42.21
2022-09-28T13:22:49.923Z,42.98
2022-09-28T13:32:54.228Z,43.45
2022-09-28T13:43:08.384Z,41.85
2022-09-28T13:53:19.162Z,42.61
2022-09-28T14:03:30.055Z,43.58
2022-09-28T14:14:03.873Z,44.81
2022-09-28T14:24:16.418Z,42.56
2022-09-28T14:34:34.178Z,42.92
2022-09-28T14:45:35.737Z,44.55
2022-09-28T14:55:45.732Z,43.55
2022-09-28T15:05:50.368Z,44.78
2022-09-28T15:15:56.258Z,44.39
2022-09-28T15:26:00.808Z,44.93
2022-09-28T15:36:07.072Z,44.38
2022-09-28T15:46:16.155Z,44.94
2022-09-28T15:56:19.610Z,44.88
2022-09-28T16:06:24.345Z,45.54
2022-09-28T16:16:30.410Z,45.57
2022-09-28T16:26:37.376Z,45.48
2022-09-28T16:36:45.271Z,46.06
2022-09-28T16:46:49.873Z,46.79
2022-09-28T16:56:53.156Z,49.47
2022-09-28T17:06:58.387Z,50.28
2022-09-28T17:17:09.649Z,51.39
2022-09-28T17:27:18.143Z,51.95
2022-09-28T17:37:21.260Z,53.04
2022-09-28T17:47:25.807Z,52.55
2022-09-28T17:57:28.920Z,53.27
2022-09-28T18:07:34.429Z,52.55
2022-09-28T18:17:37.781Z,54.16
2022-09-28T18:27:42.660Z,58.23
2022-09-28T18:37:45.845Z,61.48
2022-09-28T18:47:50.356Z,64.15
2022-09-28T18:57:53.619Z,64.93
2022-09-28T19:07:58.532Z,65.44
2022-09-28T19:18:01.913Z,66.62
2022-09-28T19:28:06.396Z,67.30
2022-09-28T19:38:09.705Z,67.43
2022-09-28T19:48:14.145Z,67.48
2022-09-28T19:58:17.174Z,68.13
2022-09-28T20:08:21.927Z,68.20
2022-09-28T20:18:24.957Z,69.31
2022-09-28T20:28:29.506Z,69.57
2022-09-28T20:38:32.751Z,68.91
2022-09-28T20:48:37.487Z,68.72
2022-09-28T20:58:41.529Z,69.18
2022-09-28T21:08:46.662Z,69.19
2022-09-28T21:18:49.875Z,69.66
2022-09-28T21:28:54.634Z,69.13
2022-09-28T21:38:57.819Z,69.09
2022-09-28T21:49:02.402Z,69.03
2022-09-28T21:59:05.529Z,69.70
2022-09-28T22:09:10.052Z,69.56
2022-09-28T22:19:13.109Z,69.69
2022-09-28T22:29:18.013Z,69.61
2022-09-28T22:39:21.101Z,69.98
2022-09-28T22:49:26.371Z,69.72
2022-09-28T22:59:29.566Z,69.42
2022-09-28T23:09:33.988Z,69.25
2022-09-28T23:19:37.106Z,69.03
2022-09-28T23:29:46.743Z,69.21
2022-09-28T23:39:50.253Z,70.26
2022-09-28T23:49:54.689Z,70.86
2022-09-28T23:59:58.624Z,70.33
